Terminal Aerodrome Forecast
Issued by NWS

Home | Current Version | Previous Version | Text Only | Print | Product List | Glossary On
Versions: 1 2 3 4 5 6 7 8 9 10 11 12 13
000
FTUS43 KGRB 260155 AAA
TAFAUW
TAF AMD
KAUW 260155Z 2602/2624 22007KT P6SM VCTS BKN070CB
      TEMPO 2602/2603 3SM -TSRA BKN040CB
     FM260300 VRB03KT P6SM VCSH BKN040 OVC100
     FM260500 VRB03KT P6SM SCT040 OVC100
      TEMPO 2605/2609 4SM -SHRA BR
     FM260900 11003KT 4SM BR VCSH BKN009 OVC030
     FM261300 18003KT 5SM BR VCSH OVC007
     FM261600 24007KT 6SM -SHRA OVC012
      TEMPO 2616/2620 4SM -TSRA BKN012CB
     FM262000 27010KT P6SM VCSH OVC020=

USA.gov is the U.S. government's official web portal to all federal, state and local government web resources and services.